sensor_id;sensor_type;location;lat;lon;timestamp;P1;durP1;ratioP1;P2;durP2;ratioP2
42332;SDS011;27984;51.476;5.702;2024-01-16T00:01:56;13.27;;;5.53;;
42332;SDS011;27984;51.476;5.702;2024-01-16T00:04:22;10.60;;;5.55;;
42332;SDS011;27984;51.476;5.702;2024-01-16T00:06:48;9.00;;;5.32;;
42332;SDS011;27984;51.476;5.702;2024-01-16T00:09:14;9.82;;;5.28;;
42332;SDS011;27984;51.476;5.702;2024-01-16T00:11:40;9.15;;;5.50;;
42332;SDS011;27984;51.476;5.702;2024-01-16T00:14:06;9.73;;;5.80;;
42332;SDS011;27984;51.476;5.702;2024-01-16T00:16:32;7.30;;;4.80;;
42332;SDS011;27984;51.476;5.702;2024-01-16T00:18:58;13.15;;;4.88;;
42332;SDS011;27984;51.476;5.702;2024-01-16T00:21:24;5.95;;;4.65;;
42332;SDS011;27984;51.476;5.702;2024-01-16T00:23:50;7.25;;;4.80;;
42332;SDS011;27984;51.476;5.702;2024-01-16T00:26:22;6.80;;;4.80;;
42332;SDS011;27984;51.476;5.702;2024-01-16T00:28:48;8.23;;;4.43;;
42332;SDS011;27984;51.476;5.702;2024-01-16T00:31:14;8.32;;;4.50;;
42332;SDS011;27984;51.476;5.702;2024-01-16T00:33:40;6.32;;;3.90;;
42332;SDS011;27984;51.476;5.702;2024-01-16T00:36:06;6.10;;;4.43;;
42332;SDS011;27984;51.476;5.702;2024-01-16T00:38:33;8.02;;;4.45;;
42332;SDS011;27984;51.476;5.702;2024-01-16T00:40:59;6.40;;;5.00;;
42332;SDS011;27984;51.476;5.702;2024-01-16T00:43:25;6.13;;;5.10;;
42332;SDS011;27984;51.476;5.702;2024-01-16T00:45:51;12.20;;;5.28;;
42332;SDS011;27984;51.476;5.702;2024-01-16T00:48:17;7.65;;;5.45;;
42332;SDS011;27984;51.476;5.702;2024-01-16T00:50:45;11.40;;;5.85;;
42332;SDS011;27984;51.476;5.702;2024-01-16T00:53:13;7.93;;;6.03;;
42332;SDS011;27984;51.476;5.702;2024-01-16T00:55:39;8.15;;;6.30;;
42332;SDS011;27984;51.476;5.702;2024-01-16T00:58:05;9.23;;;6.40;;
42332;SDS011;27984;51.476;5.702;2024-01-16T01:00:31;15.23;;;7.57;;
42332;SDS011;27984;51.476;5.702;2024-01-16T01:02:58;11.30;;;7.40;;
42332;SDS011;27984;51.476;5.702;2024-01-16T01:05:24;9.68;;;6.50;;
42332;SDS011;27984;51.476;5.702;2024-01-16T01:07:53;14.73;;;6.50;;
42332;SDS011;27984;51.476;5.702;2024-01-16T01:10:19;15.07;;;5.80;;
42332;SDS011;27984;51.476;5.702;2024-01-16T01:12:45;13.02;;;5.70;;
42332;SDS011;27984;51.476;5.702;2024-01-16T01:15:11;12.40;;;5.78;;
42332;SDS011;27984;51.476;5.702;2024-01-16T01:17:38;12.02;;;5.95;;
42332;SDS011;27984;51.476;5.702;2024-01-16T01:20:05;9.55;;;5.63;;
42332;SDS011;27984;51.476;5.702;2024-01-16T01:22:31;11.82;;;5.28;;
42332;SDS011;27984;51.476;5.702;2024-01-16T01:24:57;8.15;;;5.10;;
42332;SDS011;27984;51.476;5.702;2024-01-16T01:27:23;11.63;;;5.40;;
42332;SDS011;27984;51.476;5.702;2024-01-16T01:29:49;11.52;;;6.05;;
42332;SDS011;27984;51.476;5.702;2024-01-16T01:32:15;13.25;;;5.53;;
42332;SDS011;27984;51.476;5.702;2024-01-16T01:34:41;8.50;;;5.40;;
42332;SDS011;27984;51.476;5.702;2024-01-16T01:37:07;12.80;;;5.70;;
42332;SDS011;27984;51.476;5.702;2024-01-16T01:39:33;11.18;;;6.00;;
42332;SDS011;27984;51.476;5.702;2024-01-16T01:41:59;14.52;;;6.50;;
42332;SDS011;27984;51.476;5.702;2024-01-16T01:44:25;10.95;;;5.85;;
42332;SDS011;27984;51.476;5.702;2024-01-16T01:46:53;9.63;;;6.22;;
42332;SDS011;27984;51.476;5.702;2024-01-16T01:49:20;9.10;;;5.60;;
42332;SDS011;27984;51.476;5.702;2024-01-16T01:51:47;13.20;;;6.15;;
42332;SDS011;27984;51.476;5.702;2024-01-16T01:54:14;11.43;;;6.40;;
42332;SDS011;27984;51.476;5.702;2024-01-16T01:56:42;10.52;;;6.30;;
42332;SDS011;27984;51.476;5.702;2024-01-16T01:59:08;9.77;;;5.90;;
42332;SDS011;27984;51.476;5.702;2024-01-16T02:01:34;9.80;;;6.32;;
42332;SDS011;27984;51.476;5.702;2024-01-16T02:04:00;8.93;;;5.70;;
42332;SDS011;27984;51.476;5.702;2024-01-16T02:06:27;14.30;;;6.25;;
42332;SDS011;27984;51.476;5.702;2024-01-16T02:08:53;8.30;;;5.70;;
42332;SDS011;27984;51.476;5.702;2024-01-16T02:11:19;12.00;;;5.32;;
42332;SDS011;27984;51.476;5.702;2024-01-16T02:13:45;7.70;;;5.30;;
42332;SDS011;27984;51.476;5.702;2024-01-16T02:16:21;7.53;;;5.10;;
42332;SDS011;27984;51.476;5.702;2024-01-16T02:18:47;9.15;;;5.05;;
42332;SDS011;27984;51.476;5.702;2024-01-16T02:21:15;9.50;;;4.57;;
42332;SDS011;27984;51.476;5.702;2024-01-16T02:23:43;13.98;;;4.97;;
42332;SDS011;27984;51.476;5.702;2024-01-16T02:26:09;6.63;;;4.47;;
42332;SDS011;27984;51.476;5.702;2024-01-16T02:28:35;9.38;;;4.80;;
42332;SDS011;27984;51.476;5.702;2024-01-16T02:31:01;7.50;;;4.45;;
42332;SDS011;27984;51.476;5.702;2024-01-16T02:33:27;8.70;;;3.95;;
42332;SDS011;27984;51.476;5.702;2024-01-16T02:35:53;9.90;;;4.15;;
42332;SDS011;27984;51.476;5.702;2024-01-16T02:38:19;10.88;;;3.90;;
42332;SDS011;27984;51.476;5.702;2024-01-16T02:40:45;8.07;;;3.40;;
42332;SDS011;27984;51.476;5.702;2024-01-16T02:43:11;6.90;;;3.22;;
42332;SDS011;27984;51.476;5.702;2024-01-16T02:45:37;6.60;;;3.05;;
42332;SDS011;27984;51.476;5.702;2024-01-16T02:48:03;6.13;;;3.13;;
42332;SDS011;27984;51.476;5.702;2024-01-16T02:50:29;8.32;;;2.88;;
42332;SDS011;27984;51.476;5.702;2024-01-16T02:52:55;8.70;;;2.80;;
42332;SDS011;27984;51.476;5.702;2024-01-16T02:55:21;7.63;;;3.20;;
42332;SDS011;27984;51.476;5.702;2024-01-16T02:57:47;6.03;;;3.35;;
42332;SDS011;27984;51.476;5.702;2024-01-16T03:00:13;8.60;;;3.38;;
42332;SDS011;27984;51.476;5.702;2024-01-16T03:02:39;8.65;;;3.38;;
42332;SDS011;27984;51.476;5.702;2024-01-16T03:05:05;8.05;;;3.10;;
42332;SDS011;27984;51.476;5.702;2024-01-16T03:07:32;3.78;;;3.28;;
42332;SDS011;27984;51.476;5.702;2024-01-16T03:09:58;9.00;;;3.30;;
42332;SDS011;27984;51.476;5.702;2024-01-16T03:12:24;8.60;;;3.30;;
42332;SDS011;27984;51.476;5.702;2024-01-16T03:14:50;8.15;;;3.63;;
42332;SDS011;27984;51.476;5.702;2024-01-16T03:17:16;7.72;;;3.15;;
42332;SDS011;27984;51.476;5.702;2024-01-16T03:19:42;7.38;;;3.30;;
42332;SDS011;27984;51.476;5.702;2024-01-16T03:22:09;8.35;;;3.22;;
42332;SDS011;27984;51.476;5.702;2024-01-16T03:24:35;7.60;;;3.33;;
42332;SDS011;27984;51.476;5.702;2024-01-16T03:27:01;8.45;;;3.00;;
42332;SDS011;27984;51.476;5.702;2024-01-16T03:29:27;6.93;;;2.78;;
42332;SDS011;27984;51.476;5.702;2024-01-16T03:31:53;7.57;;;2.70;;
42332;SDS011;27984;51.476;5.702;2024-01-16T03:34:19;12.05;;;2.97;;
42332;SDS011;27984;51.476;5.702;2024-01-16T03:36:45;6.18;;;2.80;;
42332;SDS011;27984;51.476;5.702;2024-01-16T03:39:11;7.38;;;2.70;;
42332;SDS011;27984;51.476;5.702;2024-01-16T03:41:37;10.05;;;2.83;;
42332;SDS011;27984;51.476;5.702;2024-01-16T03:44:03;13.05;;;2.88;;
42332;SDS011;27984;51.476;5.702;2024-01-16T03:46:29;9.38;;;2.83;;
42332;SDS011;27984;51.476;5.702;2024-01-16T03:48:55;8.23;;;2.80;;
42332;SDS011;27984;51.476;5.702;2024-01-16T03:51:21;6.80;;;3.00;;
42332;SDS011;27984;51.476;5.702;2024-01-16T03:53:47;8.20;;;3.92;;
42332;SDS011;27984;51.476;5.702;2024-01-16T03:56:13;10.57;;;5.30;;
42332;SDS011;27984;51.476;5.702;2024-01-16T03:58:40;12.82;;;7.03;;
42332;SDS011;27984;51.476;5.702;2024-01-16T04:01:06;10.07;;;6.93;;
42332;SDS011;27984;51.476;5.702;2024-01-16T04:03:32;19.05;;;7.63;;
42332;SDS011;27984;51.476;5.702;2024-01-16T04:06:00;12.57;;;7.88;;
42332;SDS011;27984;51.476;5.702;2024-01-16T04:08:26;17.45;;;9.07;;
42332;SDS011;27984;51.476;5.702;2024-01-16T04:10:52;16.15;;;9.88;;
42332;SDS011;27984;51.476;5.702;2024-01-16T04:13:18;20.20;;;11.40;;
42332;SDS011;27984;51.476;5.702;2024-01-16T04:15:44;25.75;;;12.20;;
42332;SDS011;27984;51.476;5.702;2024-01-16T04:18:10;24.90;;;12.23;;
42332;SDS011;27984;51.476;5.702;2024-01-16T04:20:36;22.60;;;12.98;;
42332;SDS011;27984;51.476;5.702;2024-01-16T04:23:02;20.48;;;13.02;;
42332;SDS011;27984;51.476;5.702;2024-01-16T04:25:28;21.40;;;12.27;;
42332;SDS011;27984;51.476;5.702;2024-01-16T04:27:54;24.05;;;13.68;;
42332;SDS011;27984;51.476;5.702;2024-01-16T04:30:20;25.27;;;13.70;;
42332;SDS011;27984;51.476;5.702;2024-01-16T04:32:46;21.35;;;12.27;;
42332;SDS011;27984;51.476;5.702;2024-01-16T04:35:12;21.65;;;12.93;;
42332;SDS011;27984;51.476;5.702;2024-01-16T04:37:38;26.13;;;12.52;;
42332;SDS011;27984;51.476;5.702;2024-01-16T04:40:04;22.48;;;12.38;;
42332;SDS011;27984;51.476;5.702;2024-01-16T04:42:30;26.17;;;12.98;;
42332;SDS011;27984;51.476;5.702;2024-01-16T04:44:56;26.88;;;12.70;;
42332;SDS011;27984;51.476;5.702;2024-01-16T04:47:22;21.27;;;11.25;;
42332;SDS011;27984;51.476;5.702;2024-01-16T04:49:48;23.48;;;11.98;;
42332;SDS011;27984;51.476;5.702;2024-01-16T04:52:14;25.50;;;11.90;;
42332;SDS011;27984;51.476;5.702;2024-01-16T04:54:40;21.40;;;11.90;;
42332;SDS011;27984;51.476;5.702;2024-01-16T04:57:06;25.48;;;11.23;;
42332;SDS011;27984;51.476;5.702;2024-01-16T04:59:32;21.02;;;10.10;;
42332;SDS011;27984;51.476;5.702;2024-01-16T05:01:58;19.13;;;10.15;;
42332;SDS011;27984;51.476;5.702;2024-01-16T05:04:24;19.92;;;9.98;;
42332;SDS011;27984;51.476;5.702;2024-01-16T05:06:51;17.30;;;9.60;;
42332;SDS011;27984;51.476;5.702;2024-01-16T05:09:17;25.75;;;10.25;;
42332;SDS011;27984;51.476;5.702;2024-01-16T05:11:44;21.17;;;9.65;;
42332;SDS011;27984;51.476;5.702;2024-01-16T05:14:11;24.20;;;10.15;;
42332;SDS011;27984;51.476;5.702;2024-01-16T05:16:37;23.17;;;9.93;;
42332;SDS011;27984;51.476;5.702;2024-01-16T05:19:03;23.80;;;9.68;;
42332;SDS011;27984;51.476;5.702;2024-01-16T05:21:29;21.75;;;9.43;;
42332;SDS011;27984;51.476;5.702;2024-01-16T05:23:54;21.15;;;8.98;;
42332;SDS011;27984;51.476;5.702;2024-01-16T05:26:21;19.80;;;9.80;;
42332;SDS011;27984;51.476;5.702;2024-01-16T05:28:47;17.55;;;8.82;;
42332;SDS011;27984;51.476;5.702;2024-01-16T05:31:13;19.92;;;8.30;;
42332;SDS011;27984;51.476;5.702;2024-01-16T05:33:39;20.85;;;8.65;;
42332;SDS011;27984;51.476;5.702;2024-01-16T05:36:05;21.75;;;8.27;;
42332;SDS011;27984;51.476;5.702;2024-01-16T05:38:31;18.08;;;8.20;;
42332;SDS011;27984;51.476;5.702;2024-01-16T05:40:58;18.20;;;8.57;;
42332;SDS011;27984;51.476;5.702;2024-01-16T05:43:24;21.45;;;9.15;;
42332;SDS011;27984;51.476;5.702;2024-01-16T05:45:50;24.52;;;9.50;;
42332;SDS011;27984;51.476;5.702;2024-01-16T05:48:16;24.33;;;9.40;;
42332;SDS011;27984;51.476;5.702;2024-01-16T05:50:42;27.80;;;9.90;;
42332;SDS011;27984;51.476;5.702;2024-01-16T05:53:08;25.48;;;9.40;;
42332;SDS011;27984;51.476;5.702;2024-01-16T05:55:34;22.25;;;9.68;;
42332;SDS011;27984;51.476;5.702;2024-01-16T05:58:02;19.77;;;9.43;;
42332;SDS011;27984;51.476;5.702;2024-01-16T06:00:28;29.23;;;9.60;;
42332;SDS011;27984;51.476;5.702;2024-01-16T06:02:54;22.27;;;8.93;;
42332;SDS011;27984;51.476;5.702;2024-01-16T06:05:20;25.42;;;9.80;;
42332;SDS011;27984;51.476;5.702;2024-01-16T06:07:46;25.00;;;9.55;;
42332;SDS011;27984;51.476;5.702;2024-01-16T06:10:12;22.98;;;8.43;;
42332;SDS011;27984;51.476;5.702;2024-01-16T06:12:42;17.80;;;7.45;;
42332;SDS011;27984;51.476;5.702;2024-01-16T06:15:08;15.55;;;7.60;;
42332;SDS011;27984;51.476;5.702;2024-01-16T06:17:36;20.88;;;7.57;;
42332;SDS011;27984;51.476;5.702;2024-01-16T06:20:02;17.73;;;7.22;;
42332;SDS011;27984;51.476;5.702;2024-01-16T06:22:29;18.42;;;7.68;;
42332;SDS011;27984;51.476;5.702;2024-01-16T06:24:55;19.30;;;7.40;;
42332;SDS011;27984;51.476;5.702;2024-01-16T06:27:21;19.40;;;6.90;;
42332;SDS011;27984;51.476;5.702;2024-01-16T06:29:48;20.17;;;7.35;;
42332;SDS011;27984;51.476;5.702;2024-01-16T06:32:14;22.38;;;7.03;;
42332;SDS011;27984;51.476;5.702;2024-01-16T06:34:40;14.95;;;6.97;;
42332;SDS011;27984;51.476;5.702;2024-01-16T06:37:06;15.77;;;6.57;;
42332;SDS011;27984;51.476;5.702;2024-01-16T06:39:33;17.40;;;6.72;;
42332;SDS011;27984;51.476;5.702;2024-01-16T06:41:59;18.45;;;6.82;;
42332;SDS011;27984;51.476;5.702;2024-01-16T06:44:25;15.70;;;6.03;;
42332;SDS011;27984;51.476;5.702;2024-01-16T06:46:51;17.38;;;6.43;;
42332;SDS011;27984;51.476;5.702;2024-01-16T06:49:17;15.00;;;6.55;;
42332;SDS011;27984;51.476;5.702;2024-01-16T06:51:43;13.98;;;6.82;;
42332;SDS011;27984;51.476;5.702;2024-01-16T06:54:09;12.57;;;6.35;;
42332;SDS011;27984;51.476;5.702;2024-01-16T06:56:35;17.67;;;6.55;;
42332;SDS011;27984;51.476;5.702;2024-01-16T06:59:01;13.80;;;6.35;;
42332;SDS011;27984;51.476;5.702;2024-01-16T07:01:27;19.58;;;6.30;;
42332;SDS011;27984;51.476;5.702;2024-01-16T07:03:53;18.55;;;6.57;;
42332;SDS011;27984;51.476;5.702;2024-01-16T07:06:19;13.13;;;6.20;;
42332;SDS011;27984;51.476;5.702;2024-01-16T07:08:45;17.58;;;6.00;;
42332;SDS011;27984;51.476;5.702;2024-01-16T07:11:11;14.27;;;5.97;;
42332;SDS011;27984;51.476;5.702;2024-01-16T07:13:39;12.43;;;5.97;;
42332;SDS011;27984;51.476;5.702;2024-01-16T07:16:05;14.60;;;5.45;;
42332;SDS011;27984;51.476;5.702;2024-01-16T07:18:31;13.93;;;6.00;;
42332;SDS011;27984;51.476;5.702;2024-01-16T07:20:57;11.45;;;5.53;;
42332;SDS011;27984;51.476;5.702;2024-01-16T07:23:23;14.93;;;5.50;;
42332;SDS011;27984;51.476;5.702;2024-01-16T07:25:49;12.23;;;5.90;;
42332;SDS011;27984;51.476;5.702;2024-01-16T07:28:14;11.18;;;5.50;;
42332;SDS011;27984;51.476;5.702;2024-01-16T07:30:40;14.70;;;6.18;;
42332;SDS011;27984;51.476;5.702;2024-01-16T07:33:06;13.88;;;6.00;;
42332;SDS011;27984;51.476;5.702;2024-01-16T07:35:32;15.57;;;5.60;;
42332;SDS011;27984;51.476;5.702;2024-01-16T07:37:58;11.68;;;5.40;;
42332;SDS011;27984;51.476;5.702;2024-01-16T07:40:24;17.27;;;6.28;;
42332;SDS011;27984;51.476;5.702;2024-01-16T07:42:51;12.85;;;5.63;;
42332;SDS011;27984;51.476;5.702;2024-01-16T07:45:16;20.35;;;5.90;;
42332;SDS011;27984;51.476;5.702;2024-01-16T07:47:42;15.85;;;6.20;;
42332;SDS011;27984;51.476;5.702;2024-01-16T07:50:09;14.27;;;5.75;;
42332;SDS011;27984;51.476;5.702;2024-01-16T07:52:35;16.17;;;6.43;;
42332;SDS011;27984;51.476;5.702;2024-01-16T07:55:01;15.55;;;6.22;;
42332;SDS011;27984;51.476;5.702;2024-01-16T07:57:28;15.50;;;6.47;;
42332;SDS011;27984;51.476;5.702;2024-01-16T07:59:54;15.90;;;6.43;;
42332;SDS011;27984;51.476;5.702;2024-01-16T08:02:20;15.65;;;6.25;;
42332;SDS011;27984;51.476;5.702;2024-01-16T08:04:46;18.30;;;6.05;;
42332;SDS011;27984;51.476;5.702;2024-01-16T08:07:12;13.38;;;6.05;;
42332;SDS011;27984;51.476;5.702;2024-01-16T08:09:38;16.05;;;6.45;;
42332;SDS011;27984;51.476;5.702;2024-01-16T08:12:04;10.13;;;5.82;;
42332;SDS011;27984;51.476;5.702;2024-01-16T08:14:31;17.00;;;6.22;;
42332;SDS011;27984;51.476;5.702;2024-01-16T08:16:57;12.90;;;6.10;;
42332;SDS011;27984;51.476;5.702;2024-01-16T08:19:23;17.10;;;6.35;;
42332;SDS011;27984;51.476;5.702;2024-01-16T08:21:48;14.80;;;6.15;;
42332;SDS011;27984;51.476;5.702;2024-01-16T08:24:14;14.05;;;6.20;;
42332;SDS011;27984;51.476;5.702;2024-01-16T08:26:40;17.10;;;6.40;;
42332;SDS011;27984;51.476;5.702;2024-01-16T08:29:06;13.82;;;6.20;;
42332;SDS011;27984;51.476;5.702;2024-01-16T08:31:32;15.30;;;6.45;;
42332;SDS011;27984;51.476;5.702;2024-01-16T08:33:58;17.05;;;6.60;;
42332;SDS011;27984;51.476;5.702;2024-01-16T08:36:24;15.63;;;6.35;;
42332;SDS011;27984;51.476;5.702;2024-01-16T08:38:50;15.15;;;6.40;;
42332;SDS011;27984;51.476;5.702;2024-01-16T08:41:16;18.15;;;6.40;;
42332;SDS011;27984;51.476;5.702;2024-01-16T08:43:42;11.10;;;6.03;;
42332;SDS011;27984;51.476;5.702;2024-01-16T08:46:08;17.50;;;6.47;;
42332;SDS011;27984;51.476;5.702;2024-01-16T08:48:34;12.00;;;6.55;;
42332;SDS011;27984;51.476;5.702;2024-01-16T08:51:01;12.13;;;6.07;;
42332;SDS011;27984;51.476;5.702;2024-01-16T08:53:27;17.50;;;6.40;;
42332;SDS011;27984;51.476;5.702;2024-01-16T08:55:53;14.70;;;6.10;;
42332;SDS011;27984;51.476;5.702;2024-01-16T08:58:19;11.82;;;5.70;;
42332;SDS011;27984;51.476;5.702;2024-01-16T09:00:45;14.57;;;5.80;;
42332;SDS011;27984;51.476;5.702;2024-01-16T09:03:12;13.50;;;6.03;;
42332;SDS011;27984;51.476;5.702;2024-01-16T09:05:38;16.88;;;6.38;;
42332;SDS011;27984;51.476;5.702;2024-01-16T09:08:04;11.45;;;5.78;;
42332;SDS011;27984;51.476;5.702;2024-01-16T09:10:30;14.38;;;5.75;;
42332;SDS011;27984;51.476;5.702;2024-01-16T09:12:56;17.75;;;6.30;;
42332;SDS011;27984;51.476;5.702;2024-01-16T09:15:22;14.38;;;5.63;;
42332;SDS011;27984;51.476;5.702;2024-01-16T09:17:48;14.35;;;5.65;;
42332;SDS011;27984;51.476;5.702;2024-01-16T09:20:14;11.90;;;5.70;;
42332;SDS011;27984;51.476;5.702;2024-01-16T09:22:40;17.80;;;6.10;;
42332;SDS011;27984;51.476;5.702;2024-01-16T09:25:06;20.42;;;6.75;;
42332;SDS011;27984;51.476;5.702;2024-01-16T09:27:32;14.93;;;6.60;;
42332;SDS011;27984;51.476;5.702;2024-01-16T09:29:59;16.80;;;6.20;;
42332;SDS011;27984;51.476;5.702;2024-01-16T09:32:25;16.58;;;6.13;;
42332;SDS011;27984;51.476;5.702;2024-01-16T09:34:51;12.57;;;6.10;;
42332;SDS011;27984;51.476;5.702;2024-01-16T09:37:17;13.23;;;5.63;;
42332;SDS011;27984;51.476;5.702;2024-01-16T09:39:43;15.52;;;6.05;;
42332;SDS011;27984;51.476;5.702;2024-01-16T09:42:09;17.70;;;6.10;;
42332;SDS011;27984;51.476;5.702;2024-01-16T09:44:35;15.55;;;6.80;;
42332;SDS011;27984;51.476;5.702;2024-01-16T09:47:01;16.33;;;6.55;;
42332;SDS011;27984;51.476;5.702;2024-01-16T09:49:29;17.77;;;6.80;;
42332;SDS011;27984;51.476;5.702;2024-01-16T09:51:55;15.55;;;6.57;;
42332;SDS011;27984;51.476;5.702;2024-01-16T09:54:24;13.27;;;6.50;;
42332;SDS011;27984;51.476;5.702;2024-01-16T09:56:51;16.05;;;6.20;;
42332;SDS011;27984;51.476;5.702;2024-01-16T09:59:19;15.07;;;6.05;;
42332;SDS011;27984;51.476;5.702;2024-01-16T10:01:46;11.55;;;5.55;;
42332;SDS011;27984;51.476;5.702;2024-01-16T10:04:13;11.55;;;5.82;;
42332;SDS011;27984;51.476;5.702;2024-01-16T10:06:40;11.20;;;5.72;;
42332;SDS011;27984;51.476;5.702;2024-01-16T10:09:07;12.10;;;6.20;;
42332;SDS011;27984;51.476;5.702;2024-01-16T10:11:33;15.68;;;5.28;;
42332;SDS011;27984;51.476;5.702;2024-01-16T10:13:59;12.30;;;5.70;;
42332;SDS011;27984;51.476;5.702;2024-01-16T10:17:11;12.75;;;5.75;;
42332;SDS011;27984;51.476;5.702;2024-01-16T10:19:12;9.88;;;4.95;;
42332;SDS011;27984;51.476;5.702;2024-01-16T10:21:38;14.07;;;5.57;;
42332;SDS011;27984;51.476;5.702;2024-01-16T10:24:10;11.00;;;5.30;;
42332;SDS011;27984;51.476;5.702;2024-01-16T10:26:37;11.70;;;5.43;;
42332;SDS011;27984;51.476;5.702;2024-01-16T10:29:03;16.75;;;5.22;;
42332;SDS011;27984;51.476;5.702;2024-01-16T10:31:29;12.55;;;5.63;;
42332;SDS011;27984;51.476;5.702;2024-01-16T10:33:56;9.18;;;4.90;;
42332;SDS011;27984;51.476;5.702;2024-01-16T10:36:23;10.27;;;5.47;;
42332;SDS011;27984;51.476;5.702;2024-01-16T10:38:50;9.65;;;5.45;;
42332;SDS011;27984;51.476;5.702;2024-01-16T10:41:23;13.30;;;5.38;;
42332;SDS011;27984;51.476;5.702;2024-01-16T10:44:04;9.93;;;5.63;;
42332;SDS011;27984;51.476;5.702;2024-01-16T10:46:34;12.45;;;4.80;;
42332;SDS011;27984;51.476;5.702;2024-01-16T10:49:02;9.45;;;5.30;;
42332;SDS011;27984;51.476;5.702;2024-01-16T10:51:29;12.18;;;5.72;;
42332;SDS011;27984;51.476;5.702;2024-01-16T10:54:13;11.50;;;5.50;;
42332;SDS011;27984;51.476;5.702;2024-01-16T10:56:42;12.00;;;5.13;;
42332;SDS011;27984;51.476;5.702;2024-01-16T11:01:36;14.73;;;5.35;;
42332;SDS011;27984;51.476;5.702;2024-01-16T11:04:03;15.20;;;5.95;;
42332;SDS011;27984;51.476;5.702;2024-01-16T11:06:29;11.85;;;5.30;;
42332;SDS011;27984;51.476;5.702;2024-01-16T11:08:56;10.18;;;5.00;;
42332;SDS011;27984;51.476;5.702;2024-01-16T11:11:23;9.55;;;5.10;;
42332;SDS011;27984;51.476;5.702;2024-01-16T11:13:50;8.75;;;4.70;;
42332;SDS011;27984;51.476;5.702;2024-01-16T11:16:16;7.90;;;4.35;;
42332;SDS011;27984;51.476;5.702;2024-01-16T11:18:42;10.38;;;4.80;;
42332;SDS011;27984;51.476;5.702;2024-01-16T11:21:09;9.45;;;4.70;;
42332;SDS011;27984;51.476;5.702;2024-01-16T11:23:36;13.07;;;5.57;;
42332;SDS011;27984;51.476;5.702;2024-01-16T11:26:24;9.70;;;4.97;;
42332;SDS011;27984;51.476;5.702;2024-01-16T11:28:50;8.93;;;4.47;;
42332;SDS011;27984;51.476;5.702;2024-01-16T11:31:34;8.55;;;5.07;;
42332;SDS011;27984;51.476;5.702;2024-01-16T11:34:00;9.93;;;4.80;;
42332;SDS011;27984;51.476;5.702;2024-01-16T11:39:16;11.68;;;4.80;;
42332;SDS011;27984;51.476;5.702;2024-01-16T11:41:49;7.97;;;4.70;;
42332;SDS011;27984;51.476;5.702;2024-01-16T11:47:01;9.98;;;5.03;;
42332;SDS011;27984;51.476;5.702;2024-01-16T11:49:28;8.95;;;4.78;;
42332;SDS011;27984;51.476;5.702;2024-01-16T11:51:56;10.68;;;4.88;;
42332;SDS011;27984;51.476;5.702;2024-01-16T11:54:22;7.97;;;4.97;;
42332;SDS011;27984;51.476;5.702;2024-01-16T12:01:44;8.73;;;4.80;;
42332;SDS011;27984;51.476;5.702;2024-01-16T12:04:11;7.43;;;4.60;;
42332;SDS011;27984;51.476;5.702;2024-01-16T12:06:37;13.18;;;5.85;;
42332;SDS011;27984;51.476;5.702;2024-01-16T12:09:16;9.95;;;5.20;;
42332;SDS011;27984;51.476;5.702;2024-01-16T12:11:56;10.65;;;4.90;;
42332;SDS011;27984;51.476;5.702;2024-01-16T12:14:23;12.90;;;5.03;;
42332;SDS011;27984;51.476;5.702;2024-01-16T12:16:49;8.68;;;4.93;;
42332;SDS011;27984;51.476;5.702;2024-01-16T12:19:15;8.73;;;4.78;;
42332;SDS011;27984;51.476;5.702;2024-01-16T12:21:42;8.38;;;4.90;;
42332;SDS011;27984;51.476;5.702;2024-01-16T12:24:09;11.23;;;4.90;;
42332;SDS011;27984;51.476;5.702;2024-01-16T12:26:36;11.23;;;4.93;;
42332;SDS011;27984;51.476;5.702;2024-01-16T12:29:02;9.00;;;4.50;;
42332;SDS011;27984;51.476;5.702;2024-01-16T12:31:28;9.00;;;5.00;;
42332;SDS011;27984;51.476;5.702;2024-01-16T12:34:07;9.38;;;5.30;;
42332;SDS011;27984;51.476;5.702;2024-01-16T12:36:35;10.85;;;5.55;;
42332;SDS011;27984;51.476;5.702;2024-01-16T12:39:01;10.93;;;6.00;;
42332;SDS011;27984;51.476;5.702;2024-01-16T12:41:28;10.57;;;5.20;;
42332;SDS011;27984;51.476;5.702;2024-01-16T12:43:56;12.18;;;5.47;;
42332;SDS011;27984;51.476;5.702;2024-01-16T12:46:22;10.57;;;5.57;;
42332;SDS011;27984;51.476;5.702;2024-01-16T12:48:48;10.35;;;5.38;;
42332;SDS011;27984;51.476;5.702;2024-01-16T12:51:20;11.68;;;5.38;;
42332;SDS011;27984;51.476;5.702;2024-01-16T12:53:47;11.50;;;5.47;;
42332;SDS011;27984;51.476;5.702;2024-01-16T12:56:17;11.23;;;5.53;;
42332;SDS011;27984;51.476;5.702;2024-01-16T12:58:43;7.68;;;4.82;;
42332;SDS011;27984;51.476;5.702;2024-01-16T13:01:25;15.25;;;5.38;;
42332;SDS011;27984;51.476;5.702;2024-01-16T13:03:53;9.82;;;4.50;;
42332;SDS011;27984;51.476;5.702;2024-01-16T13:06:22;12.95;;;5.13;;
42332;SDS011;27984;51.476;5.702;2024-01-16T13:08:48;9.88;;;5.00;;
42332;SDS011;27984;51.476;5.702;2024-01-16T13:11:15;11.20;;;5.10;;
42332;SDS011;27984;51.476;5.702;2024-01-16T13:13:44;9.07;;;4.80;;
42332;SDS011;27984;51.476;5.702;2024-01-16T13:16:10;7.07;;;4.75;;
42332;SDS011;27984;51.476;5.702;2024-01-16T13:18:36;11.18;;;5.22;;
42332;SDS011;27984;51.476;5.702;2024-01-16T13:21:02;8.60;;;4.68;;
42332;SDS011;27984;51.476;5.702;2024-01-16T13:23:29;10.77;;;4.68;;
42332;SDS011;27984;51.476;5.702;2024-01-16T13:25:56;8.40;;;4.70;;
42332;SDS011;27984;51.476;5.702;2024-01-16T13:28:24;11.07;;;4.95;;
42332;SDS011;27984;51.476;5.702;2024-01-16T13:30:50;12.10;;;4.97;;
42332;SDS011;27984;51.476;5.702;2024-01-16T13:33:17;11.27;;;5.35;;
42332;SDS011;27984;51.476;5.702;2024-01-16T13:35:44;9.02;;;4.72;;
42332;SDS011;27984;51.476;5.702;2024-01-16T13:38:11;7.35;;;4.35;;
42332;SDS011;27984;51.476;5.702;2024-01-16T13:40:38;9.77;;;4.97;;
42332;SDS011;27984;51.476;5.702;2024-01-16T13:43:04;15.00;;;5.20;;
42332;SDS011;27984;51.476;5.702;2024-01-16T13:45:31;10.32;;;5.20;;
42332;SDS011;27984;51.476;5.702;2024-01-16T13:47:58;12.98;;;5.10;;
42332;SDS011;27984;51.476;5.702;2024-01-16T13:50:26;7.57;;;4.80;;
42332;SDS011;27984;51.476;5.702;2024-01-16T13:52:52;10.82;;;5.25;;
42332;SDS011;27984;51.476;5.702;2024-01-16T13:55:18;10.63;;;4.95;;
42332;SDS011;27984;51.476;5.702;2024-01-16T13:57:44;11.55;;;5.65;;
42332;SDS011;27984;51.476;5.702;2024-01-16T14:00:11;9.75;;;4.65;;
42332;SDS011;27984;51.476;5.702;2024-01-16T14:02:50;10.15;;;5.05;;
42332;SDS011;27984;51.476;5.702;2024-01-16T14:05:34;11.93;;;5.15;;
42332;SDS011;27984;51.476;5.702;2024-01-16T14:08:01;10.48;;;5.35;;
42332;SDS011;27984;51.476;5.702;2024-01-16T14:10:27;10.88;;;5.55;;
42332;SDS011;27984;51.476;5.702;2024-01-16T14:12:53;10.63;;;5.28;;
42332;SDS011;27984;51.476;5.702;2024-01-16T14:15:19;12.20;;;5.60;;
42332;SDS011;27984;51.476;5.702;2024-01-16T14:17:49;11.00;;;5.50;;
42332;SDS011;27984;51.476;5.702;2024-01-16T14:20:16;12.93;;;5.53;;
42332;SDS011;27984;51.476;5.702;2024-01-16T14:22:43;11.65;;;5.68;;
42332;SDS011;27984;51.476;5.702;2024-01-16T14:25:10;12.00;;;5.10;;
42332;SDS011;27984;51.476;5.702;2024-01-16T14:27:48;11.70;;;5.40;;
42332;SDS011;27984;51.476;5.702;2024-01-16T14:30:15;10.18;;;5.55;;
42332;SDS011;27984;51.476;5.702;2024-01-16T14:32:42;13.32;;;5.88;;
42332;SDS011;27984;51.476;5.702;2024-01-16T14:35:09;14.65;;;5.72;;
42332;SDS011;27984;51.476;5.702;2024-01-16T14:37:35;11.02;;;5.28;;
42332;SDS011;27984;51.476;5.702;2024-01-16T14:40:02;14.60;;;5.57;;
42332;SDS011;27984;51.476;5.702;2024-01-16T14:42:31;11.70;;;4.95;;
42332;SDS011;27984;51.476;5.702;2024-01-16T14:44:59;8.82;;;4.88;;
42332;SDS011;27984;51.476;5.702;2024-01-16T14:47:25;16.05;;;6.05;;
42332;SDS011;27984;51.476;5.702;2024-01-16T14:49:51;14.20;;;7.20;;